Turner, Idaho
Current Conditions -  °F | °C
As of 7:35 AM on Friday 19 Dec 2014 (Local Time) from KAFO Reporting Station
Overcast Overcast  
Wind Chill: -2°   Ceiling: 3400
Heat Index: -2°   Visibility: 10mi
Dew Point: -5°   Wind: 0mph
Humidity: 80%   Direction: NA
Pressure: 30.13"   Gusts: NA
Location:  42.5232°N, 111.761°W
Report Text: KAFO 191435Z AUTO 00000KT 10SM OVC034 M02/M05 A3013 RMK AO2
Loading
Personal Weather Stations






























Interactive Weather Map New forecast layout! Learn more

10-Day Weather Forecast

Advertisements
Track Severe Weather on mobile